DLH812 VOMM-VOBL
Flight info
| Callsign | DLH812 |
|---|---|
| Flight time | 0h 27m |
| Altitude | 16000 |
| Route | XIVIL |
| Aircraft | A346/H-SDE2E3FGHIJ3J4J5M1RWXY/LB1D1 |
Departure
| Time | 2026-04-24 07:45 |
|---|---|
| Airport | Chennai International Airport (VOMM) |
Arrival
| Time | 2026-04-24 08:12 |
|---|---|
| Airport | Kempegowda International Airport Bengaluru (VOBL) |
| Time | Latitude | Longitude | Altitude | Speed | Heading |
|---|---|---|---|---|---|
| 2026-04-24 07:34 | 12.98360 | 80.16307 | 57 ft | 0 kts | 158° |
| 2026-04-24 07:38 | 12.98371 | 80.16303 | 56 ft | 4 kts | 156° |
| 2026-04-24 07:38 | 12.98393 | 80.16293 | 54 ft | 4 kts | 169° |
| 2026-04-24 07:38 | 12.98404 | 80.16295 | 54 ft | 4 kts | 201° |
| 2026-04-24 07:39 | 12.98421 | 80.16306 | 54 ft | 4 kts | 234° |
| 2026-04-24 07:39 | 12.98431 | 80.16329 | 54 ft | 4 kts | 251° |
| 2026-04-24 07:39 | 12.98436 | 80.16343 | 54 ft | 0 kts | 250° |
| 2026-04-24 07:41 | 12.98436 | 80.16342 | 54 ft | 1 kts | 250° |
| 2026-04-24 07:41 | 12.98429 | 80.16324 | 54 ft | 5 kts | 250° |
| 2026-04-24 07:41 | 12.98414 | 80.16281 | 57 ft | 8 kts | 250° |
| 2026-04-24 07:41 | 12.98389 | 80.16210 | 57 ft | 12 kts | 250° |
| 2026-04-24 07:42 | 12.98355 | 80.16116 | 58 ft | 16 kts | 250° |
| 2026-04-24 07:42 | 12.98310 | 80.15999 | 56 ft | 19 kts | 247° |
| 2026-04-24 07:42 | 12.98302 | 80.15858 | 56 ft | 22 kts | 286° |
| 2026-04-24 07:42 | 12.98348 | 80.15699 | 57 ft | 24 kts | 286° |
| 2026-04-24 07:43 | 12.98397 | 80.15525 | 60 ft | 27 kts | 285° |
| 2026-04-24 07:43 | 12.98410 | 80.15424 | 59 ft | 12 kts | 255° |
| 2026-04-24 07:43 | 12.98392 | 80.15373 | 58 ft | 6 kts | 252° |
| 2026-04-24 07:43 | 12.98408 | 80.15334 | 59 ft | 7 kts | 336° |
| 2026-04-24 07:44 | 12.98443 | 80.15367 | 58 ft | 10 kts | 67° |
| 2026-04-24 07:44 | 12.98483 | 80.15472 | 60 ft | 36 kts | 69° |
| 2026-04-24 07:44 | 12.98655 | 80.15952 | 58 ft | 106 kts | 70° |
| 2026-04-24 07:44 | 12.99003 | 80.16860 | 56 ft | 165 kts | 69° |
| 2026-04-24 07:45 | 12.99514 | 80.18030 | 421 ft | 185 kts | 70° |
| 2026-04-24 07:45 | 13.00079 | 80.19227 | 1092 ft | 189 kts | 64° |
| 2026-04-24 07:45 | 13.00882 | 80.20315 | 1860 ft | 194 kts | 45° |
| 2026-04-24 07:45 | 13.02024 | 80.21108 | 2347 ft | 206 kts | 23° |
| 2026-04-24 07:46 | 13.03471 | 80.21432 | 2762 ft | 222 kts | 4° |
| 2026-04-24 07:46 | 13.05080 | 80.21380 | 3120 ft | 241 kts | 351° |
| 2026-04-24 07:46 | 13.06784 | 80.20982 | 3493 ft | 261 kts | 340° |
| 2026-04-24 07:46 | 13.08446 | 80.20110 | 3904 ft | 279 kts | 316° |
| 2026-04-24 07:47 | 13.09480 | 80.18422 | 4445 ft | 284 kts | 283° |
| 2026-04-24 07:47 | 13.09841 | 80.16427 | 5222 ft | 286 kts | 276° |
| 2026-04-24 07:47 | 13.10079 | 80.14380 | 6023 ft | 290 kts | 276° |
| 2026-04-24 07:47 | 13.10324 | 80.12333 | 6760 ft | 295 kts | 277° |
| 2026-04-24 07:48 | 13.10607 | 80.10226 | 7527 ft | 300 kts | 278° |
| 2026-04-24 07:48 | 13.10917 | 80.08091 | 8333 ft | 304 kts | 279° |
| 2026-04-24 07:48 | 13.11247 | 80.05928 | 9162 ft | 309 kts | 280° |
| 2026-04-24 07:48 | 13.11591 | 80.03731 | 9979 ft | 313 kts | 281° |
| 2026-04-24 07:49 | 13.11949 | 80.01487 | 10600 ft | 325 kts | 281° |
| 2026-04-24 07:49 | 13.12330 | 79.99138 | 11025 ft | 343 kts | 281° |
| 2026-04-24 07:49 | 13.12733 | 79.96654 | 11419 ft | 362 kts | 281° |
| 2026-04-24 07:49 | 13.13157 | 79.94035 | 11789 ft | 380 kts | 281° |
| 2026-04-24 07:50 | 13.13600 | 79.91297 | 12130 ft | 398 kts | 281° |
| 2026-04-24 07:50 | 13.14061 | 79.88439 | 12619 ft | 411 kts | 281° |
| 2026-04-24 07:50 | 13.14528 | 79.85526 | 13392 ft | 415 kts | 281° |
| 2026-04-24 07:50 | 13.15001 | 79.82584 | 14148 ft | 418 kts | 281° |
| 2026-04-24 07:51 | 13.15473 | 79.79665 | 14825 ft | 421 kts | 281° |
| 2026-04-24 07:51 | 13.15962 | 79.76643 | 15416 ft | 425 kts | 280° |
| 2026-04-24 07:51 | 13.16439 | 79.73677 | 15737 ft | 426 kts | 280° |
| 2026-04-24 07:51 | 13.16919 | 79.70676 | 15800 ft | 426 kts | 280° |
| 2026-04-24 07:52 | 13.17397 | 79.67673 | 15806 ft | 426 kts | 280° |
| 2026-04-24 07:52 | 13.17876 | 79.64672 | 15810 ft | 426 kts | 280° |
| 2026-04-24 07:52 | 13.18356 | 79.61665 | 15805 ft | 426 kts | 280° |
| 2026-04-24 07:52 | 13.18835 | 79.58663 | 15805 ft | 426 kts | 280° |
| 2026-04-24 07:53 | 13.19314 | 79.55661 | 15820 ft | 426 kts | 280° |
| 2026-04-24 07:53 | 13.19793 | 79.52660 | 15812 ft | 425 kts | 280° |
| 2026-04-24 07:53 | 13.20266 | 79.49698 | 15814 ft | 426 kts | 280° |
| 2026-04-24 07:53 | 13.20745 | 79.46691 | 15814 ft | 425 kts | 280° |
| 2026-04-24 07:54 | 13.21223 | 79.43692 | 15814 ft | 425 kts | 280° |
| 2026-04-24 07:54 | 13.21701 | 79.40691 | 15820 ft | 425 kts | 280° |
| 2026-04-24 07:54 | 13.22179 | 79.37691 | 15817 ft | 425 kts | 280° |
| 2026-04-24 07:54 | 13.22655 | 79.34694 | 15823 ft | 425 kts | 280° |
| 2026-04-24 07:55 | 13.23131 | 79.31694 | 15825 ft | 425 kts | 280° |
| 2026-04-24 07:55 | 13.23606 | 79.28695 | 15824 ft | 425 kts | 280° |
| 2026-04-24 07:55 | 13.24073 | 79.25692 | 15822 ft | 425 kts | 278° |
| 2026-04-24 07:55 | 13.24199 | 79.22654 | 15823 ft | 426 kts | 269° |
| 2026-04-24 07:56 | 13.24130 | 79.20634 | 15831 ft | 426 kts | 268° |
| 2026-04-24 07:56 | 13.23930 | 79.16607 | 15832 ft | 426 kts | 267° |
| 2026-04-24 07:56 | 13.23790 | 79.13563 | 15831 ft | 426 kts | 268° |
| 2026-04-24 07:56 | 13.23671 | 79.10518 | 15851 ft | 426 kts | 268° |
| 2026-04-24 07:57 | 13.23568 | 79.07468 | 15853 ft | 426 kts | 268° |
| 2026-04-24 07:57 | 13.23474 | 79.04418 | 15850 ft | 426 kts | 268° |
| 2026-04-24 07:57 | 13.23416 | 79.02403 | 15851 ft | 426 kts | 269° |
| 2026-04-24 07:57 | 13.23330 | 78.99355 | 15852 ft | 427 kts | 269° |
| 2026-04-24 07:58 | 13.23219 | 78.95324 | 15862 ft | 426 kts | 269° |
| 2026-04-24 07:58 | 13.23136 | 78.92276 | 15859 ft | 425 kts | 269° |
| 2026-04-24 07:58 | 13.23054 | 78.89234 | 15868 ft | 426 kts | 269° |
| 2026-04-24 07:58 | 13.22998 | 78.87212 | 15866 ft | 427 kts | 269° |
| 2026-04-24 07:59 | 13.22916 | 78.84162 | 15867 ft | 426 kts | 269° |
| 2026-04-24 07:59 | 13.22832 | 78.81115 | 15825 ft | 426 kts | 269° |
| 2026-04-24 07:59 | 13.22748 | 78.78077 | 15577 ft | 424 kts | 269° |
| 2026-04-24 07:59 | 13.22664 | 78.75051 | 15333 ft | 423 kts | 269° |
| 2026-04-24 08:00 | 13.22580 | 78.72032 | 15078 ft | 422 kts | 269° |
| 2026-04-24 08:00 | 13.22495 | 78.69015 | 14743 ft | 420 kts | 269° |
| 2026-04-24 08:00 | 13.22411 | 78.66029 | 14331 ft | 417 kts | 269° |
| 2026-04-24 08:00 | 13.22326 | 78.63051 | 13866 ft | 415 kts | 269° |
| 2026-04-24 08:01 | 13.22242 | 78.60097 | 13341 ft | 412 kts | 270° |
| 2026-04-24 08:01 | 13.22162 | 78.57171 | 12864 ft | 407 kts | 269° |
| 2026-04-24 08:01 | 13.22083 | 78.54320 | 12431 ft | 402 kts | 269° |
| 2026-04-24 08:01 | 13.22003 | 78.51470 | 11989 ft | 396 kts | 269° |
| 2026-04-24 08:02 | 13.21923 | 78.48656 | 11565 ft | 391 kts | 269° |
| 2026-04-24 08:02 | 13.21844 | 78.45878 | 11156 ft | 387 kts | 269° |
| 2026-04-24 08:02 | 13.21766 | 78.43131 | 10773 ft | 381 kts | 269° |
| 2026-04-24 08:02 | 13.21688 | 78.40430 | 10444 ft | 374 kts | 269° |
| 2026-04-24 08:03 | 13.21610 | 78.37797 | 10247 ft | 362 kts | 269° |
| 2026-04-24 08:03 | 13.21537 | 78.35266 | 10170 ft | 347 kts | 269° |
| 2026-04-24 08:03 | 13.21466 | 78.32840 | 10115 ft | 332 kts | 269° |
| 2026-04-24 08:03 | 13.21397 | 78.30516 | 10056 ft | 318 kts | 269° |
| 2026-04-24 08:04 | 13.21333 | 78.28293 | 10013 ft | 304 kts | 269° |
| 2026-04-24 08:04 | 13.21270 | 78.26173 | 9975 ft | 297 kts | 269° |
| 2026-04-24 08:04 | 13.21209 | 78.24066 | 9945 ft | 293 kts | 269° |
| 2026-04-24 08:04 | 13.21148 | 78.21966 | 9669 ft | 295 kts | 269° |
| 2026-04-24 08:05 | 13.21087 | 78.19858 | 9316 ft | 295 kts | 269° |
| 2026-04-24 08:05 | 13.21024 | 78.17759 | 9002 ft | 293 kts | 269° |
| 2026-04-24 08:05 | 13.20963 | 78.15674 | 8687 ft | 291 kts | 269° |
| 2026-04-24 08:05 | 13.20902 | 78.13606 | 8398 ft | 288 kts | 269° |
| 2026-04-24 08:06 | 13.20841 | 78.11557 | 8096 ft | 286 kts | 267° |
| 2026-04-24 08:06 | 13.20699 | 78.09526 | 7812 ft | 284 kts | 265° |
| 2026-04-24 08:06 | 13.20561 | 78.07510 | 7544 ft | 281 kts | 267° |
| 2026-04-24 08:06 | 13.20482 | 78.05568 | 7419 ft | 271 kts | 268° |
| 2026-04-24 08:07 | 13.20446 | 78.03660 | 7299 ft | 262 kts | 269° |
| 2026-04-24 08:07 | 13.20436 | 78.01815 | 7140 ft | 256 kts | 270° |
| 2026-04-24 08:07 | 13.20443 | 77.99991 | 6902 ft | 254 kts | 270° |
| 2026-04-24 08:07 | 13.20456 | 77.98184 | 6674 ft | 252 kts | 270° |
| 2026-04-24 08:08 | 13.20473 | 77.96387 | 6431 ft | 250 kts | 270° |
| 2026-04-24 08:08 | 13.20490 | 77.94613 | 6201 ft | 247 kts | 270° |
| 2026-04-24 08:08 | 13.20506 | 77.92862 | 5991 ft | 243 kts | 270° |
| 2026-04-24 08:09 | 13.20538 | 77.89446 | 5921 ft | 237 kts | 270° |
| 2026-04-24 08:09 | 13.20554 | 77.87785 | 5750 ft | 233 kts | 269° |
| 2026-04-24 08:09 | 13.20566 | 77.86131 | 5477 ft | 229 kts | 270° |
| 2026-04-24 08:09 | 13.20583 | 77.84496 | 5160 ft | 228 kts | 270° |
| 2026-04-24 08:10 | 13.20596 | 77.82869 | 4855 ft | 226 kts | 271° |
| 2026-04-24 08:10 | 13.20611 | 77.81264 | 4574 ft | 223 kts | 268° |
| 2026-04-24 08:10 | 13.20619 | 77.79682 | 4304 ft | 219 kts | 270° |
| 2026-04-24 08:10 | 13.20635 | 77.78149 | 4053 ft | 211 kts | 269° |
| 2026-04-24 08:11 | 13.20646 | 77.76676 | 3781 ft | 199 kts | 271° |
| 2026-04-24 08:11 | 13.20659 | 77.75317 | 3550 ft | 182 kts | 270° |
| 2026-04-24 08:11 | 13.20666 | 77.74046 | 3339 ft | 172 kts | 269° |
| 2026-04-24 08:11 | 13.20672 | 77.72836 | 3050 ft | 168 kts | 269° |
| 2026-04-24 08:12 | 13.20692 | 77.71657 | 3020 ft | 149 kts | 271° |
| 2026-04-24 08:12 | 13.20701 | 77.70819 | 3024 ft | 85 kts | 270° |
| 2026-04-24 08:12 | 13.20704 | 77.70427 | 3008 ft | 36 kts | 270° |
| 2026-04-24 08:12 | 13.20702 | 77.70205 | 3008 ft | 28 kts | 263° |
| 2026-04-24 08:13 | 13.20653 | 77.70039 | 3012 ft | 20 kts | 245° |
| 2026-04-24 08:13 | 13.20613 | 77.69963 | 3011 ft | 7 kts | 233° |
| 2026-04-24 08:13 | 13.20577 | 77.69939 | 3016 ft | 7 kts | 190° |
| 2026-04-24 08:13 | 13.20541 | 77.69967 | 3021 ft | 8 kts | 111° |
| 2026-04-24 08:14 | 13.20536 | 77.70034 | 3020 ft | 11 kts | 91° |
| 2026-04-24 08:14 | 13.20535 | 77.70117 | 3020 ft | 13 kts | 91° |
| 2026-04-24 08:14 | 13.20533 | 77.70216 | 3020 ft | 15 kts | 91° |
| 2026-04-24 08:14 | 13.20533 | 77.70337 | 3020 ft | 18 kts | 90° |
| 2026-04-24 08:15 | 13.20532 | 77.70475 | 3020 ft | 21 kts | 91° |
| 2026-04-24 08:15 | 13.20530 | 77.70629 | 3008 ft | 22 kts | 91° |
| 2026-04-24 08:15 | 13.20527 | 77.70793 | 3019 ft | 24 kts | 90° |
| 2026-04-24 08:15 | 13.20527 | 77.70971 | 3019 ft | 25 kts | 90° |
| 2026-04-24 08:16 | 13.20525 | 77.71157 | 3019 ft | 26 kts | 90° |
| 2026-04-24 08:16 | 13.20519 | 77.71255 | 3016 ft | 8 kts | 117° |
| 2026-04-24 08:16 | 13.20461 | 77.71276 | 3023 ft | 11 kts | 178° |
| 2026-04-24 08:16 | 13.20379 | 77.71278 | 3017 ft | 13 kts | 179° |
| 2026-04-24 08:17 | 13.20284 | 77.71284 | 3012 ft | 14 kts | 149° |
| 2026-04-24 08:17 | 13.20259 | 77.71389 | 3017 ft | 17 kts | 90° |
| 2026-04-24 08:17 | 13.20212 | 77.71479 | 3011 ft | 15 kts | 137° |
| 2026-04-24 08:17 | 13.20185 | 77.71539 | 3008 ft | 10 kts | 95° |
| 2026-04-24 08:18 | 13.20183 | 77.71621 | 3024 ft | 12 kts | 90° |
| 2026-04-24 08:18 | 13.20182 | 77.71704 | 3024 ft | 5 kts | 95° |
| 2026-04-24 08:18 | 13.20163 | 77.71741 | 3006 ft | 6 kts | 147° |
| 2026-04-24 08:18 | 13.20126 | 77.71738 | 3020 ft | 4 kts | 188° |
| 2026-04-24 08:19 | 13.20097 | 77.71736 | 3017 ft | 3 kts | 181° |
| 2026-04-24 08:19 | 13.20089 | 77.71736 | 3009 ft | 0 kts | 181° |